Time;durP1;ratioP1;P1;durP2;ratioP2;P2;SDS_P1;SDS_P2;PMS_P1;PMS_P2;Temp;Humidity;BMP_temperature;BMP_pressure;BME280_temperature;BME280_humidity;BME280_pressure;Samples;Min_cycle;Max_cycle;Signal;HPM_P1;HPM_P2
2022/01/04 00:02:01;;;;;;;5.07;2.35;;;;;;;;;;5089193;28;20025;-50
2022/01/04 00:04:27;;;;;;;4.78;2.00;;;;;;;;;;5086890;28;20039;-49
2022/01/04 00:06:55;;;;;;;4.97;2.10;;;;;;;;;;5106933;28;20059;-48
2022/01/04 00:09:21;;;;;;;3.45;1.75;;;;;;;;;;5104190;28;20032;-48
2022/01/04 00:14:16;;;;;;;3.35;1.67;;;;;;;;;;5087052;28;20467;-48
2022/01/04 00:16:42;;;;;;;3.30;1.58;;;;;;;;;;5087243;28;20032;-49
2022/01/04 00:19:08;;;;;;;3.78;1.90;;;;;;;;;;5089084;28;20085;-49
2022/01/04 00:21:35;;;;;;;4.00;2.03;;;;;;;;;;5088545;28;20020;-51
2022/01/04 00:24:01;;;;;;;3.15;1.70;;;;;;;;;;5089201;28;20088;-50
2022/01/04 00:26:28;;;;;;;3.17;1.50;;;;;;;;;;5088767;28;20491;-51
2022/01/04 00:28:54;;;;;;;4.55;1.83;;;;;;;;;;5089263;28;20024;-52
2022/01/04 00:31:20;;;;;;;5.15;1.92;;;;;;;;;;5088492;28;20035;-48
2022/01/04 00:33:46;;;;;;;2.83;1.85;;;;;;;;;;5086933;28;20037;-49
2022/01/04 00:36:12;;;;;;;4.65;1.65;;;;;;;;;;5102457;28;20541;-50
2022/01/04 00:38:38;;;;;;;3.33;1.50;;;;;;;;;;5108773;28;20030;-49
2022/01/04 00:41:04;;;;;;;3.03;1.52;;;;;;;;;;5100821;28;20577;-49
2022/01/04 00:43:30;;;;;;;3.50;1.80;;;;;;;;;;5088339;28;20444;-48
2022/01/04 00:45:56;;;;;;;3.85;1.83;;;;;;;;;;5086673;28;20058;-51
2022/01/04 00:50:49;;;;;;;4.60;1.80;;;;;;;;;;5108783;28;20476;-52
2022/01/04 00:53:15;;;;;;;4.18;1.77;;;;;;;;;;5108686;28;20019;-52
2022/01/04 00:55:41;;;;;;;5.00;1.70;;;;;;;;;;5101925;28;20027;-51
2022/01/04 00:58:07;;;;;;;3.30;1.67;;;;;;;;;;5087984;28;20035;-52
2022/01/04 01:00:33;;;;;;;3.05;1.55;;;;;;;;;;5088028;28;20070;-50
2022/01/04 01:03:00;;;;;;;3.08;1.63;;;;;;;;;;5069672;28;20402;-48
2022/01/04 01:05:26;;;;;;;3.95;1.67;;;;;;;;;;5088774;28;20107;-47
2022/01/04 01:07:53;;;;;;;4.88;2.50;;;;;;;;;;5085829;28;20388;-52
2022/01/04 01:13:00;;;;;;;6.70;3.60;;;;;;;;;;5087709;28;20384;-51
2022/01/04 01:15:26;;;;;;;6.68;2.78;;;;;;;;;;5087753;28;20119;-48
2022/01/04 01:17:53;;;;;;;5.20;2.53;;;;;;;;;;5102086;28;20115;-51
2022/01/04 01:20:19;;;;;;;5.03;2.17;;;;;;;;;;5107675;28;20039;-51
2022/01/04 01:22:45;;;;;;;6.15;2.30;;;;;;;;;;5108248;28;20024;-52
2022/01/04 01:25:13;;;;;;;5.45;2.15;;;;;;;;;;5108099;28;20023;-51
2022/01/04 01:27:40;;;;;;;2.60;2.05;;;;;;;;;;5087514;28;20609;-51
2022/01/04 01:30:07;;;;;;;4.18;1.95;;;;;;;;;;5107727;28;20525;-51
2022/01/04 01:32:33;;;;;;;3.88;1.90;;;;;;;;;;5107638;28;20031;-48
2022/01/04 01:34:59;;;;;;;2.92;1.80;;;;;;;;;;5108051;28;20114;-48
2022/01/04 01:37:26;;;;;;;3.53;1.70;;;;;;;;;;5105476;28;20031;-48
2022/01/04 01:39:52;;;;;;;4.82;2.65;;;;;;;;;;5108494;28;20020;-48
2022/01/04 01:42:18;;;;;;;2.22;1.45;;;;;;;;;;5089429;28;20403;-49
2022/01/04 01:44:44;;;;;;;5.75;2.40;;;;;;;;;;5085629;28;20710;-47
2022/01/04 01:47:10;;;;;;;4.22;1.95;;;;;;;;;;5089730;28;20032;-48
2022/01/04 01:49:36;;;;;;;2.75;1.55;;;;;;;;;;5107573;28;20135;-49
2022/01/04 01:52:02;;;;;;;5.18;1.95;;;;;;;;;;5107640;28;20028;-50
2022/01/04 01:54:28;;;;;;;5.47;2.25;;;;;;;;;;5107440;28;20699;-50
2022/01/04 01:56:54;;;;;;;4.35;2.20;;;;;;;;;;5092245;28;20030;-48
2022/01/04 01:59:20;;;;;;;3.75;1.73;;;;;;;;;;5092600;28;20046;-49
2022/01/04 02:01:46;;;;;;;4.18;2.30;;;;;;;;;;5104206;28;20024;-48
2022/01/04 02:04:13;;;;;;;2.25;1.73;;;;;;;;;;5087502;28;20089;-50
2022/01/04 02:06:39;;;;;;;3.00;1.65;;;;;;;;;;5086284;28;20441;-49
2022/01/04 02:09:05;;;;;;;8.40;2.25;;;;;;;;;;5084975;28;20092;-48
2022/01/04 02:11:32;;;;;;;4.10;2.08;;;;;;;;;;5086145;28;20020;-48
2022/01/04 02:13:58;;;;;;;5.72;1.90;;;;;;;;;;5086895;28;20039;-48
2022/01/04 02:16:25;;;;;;;3.72;1.90;;;;;;;;;;5085430;28;20032;-48
2022/01/04 02:18:51;;;;;;;5.07;2.40;;;;;;;;;;5066719;28;20101;-48
2022/01/04 02:21:17;;;;;;;3.30;1.77;;;;;;;;;;5066311;28;20051;-51
2022/01/04 02:23:44;;;;;;;3.05;1.60;;;;;;;;;;5068745;28;20112;-48
2022/01/04 02:26:10;;;;;;;5.05;2.05;;;;;;;;;;5086742;28;20080;-48
2022/01/04 02:28:36;;;;;;;3.30;2.05;;;;;;;;;;5087059;28;20428;-48
2022/01/04 02:31:02;;;;;;;5.13;2.05;;;;;;;;;;5085467;28;20402;-48
2022/01/04 02:33:28;;;;;;;4.90;2.00;;;;;;;;;;5085718;28;20534;-48
2022/01/04 02:35:54;;;;;;;3.40;2.00;;;;;;;;;;5106209;28;20490;-49
2022/01/04 02:38:20;;;;;;;5.07;1.90;;;;;;;;;;5106560;28;20020;-48
2022/01/04 02:40:46;;;;;;;3.75;1.80;;;;;;;;;;5101689;28;20399;-48
2022/01/04 02:43:12;;;;;;;4.85;1.75;;;;;;;;;;5086207;28;20395;-48
2022/01/04 02:45:38;;;;;;;6.70;2.15;;;;;;;;;;5102627;28;20503;-49
2022/01/04 02:48:04;;;;;;;3.95;1.90;;;;;;;;;;5104089;28;20054;-47
2022/01/04 02:50:30;;;;;;;5.88;2.03;;;;;;;;;;5106322;28;20031;-49
2022/01/04 02:52:57;;;;;;;2.53;1.60;;;;;;;;;;5106658;28;20450;-49
2022/01/04 02:55:23;;;;;;;3.47;1.85;;;;;;;;;;5088568;28;20130;-50
2022/01/04 02:57:49;;;;;;;3.03;1.63;;;;;;;;;;5086479;28;20028;-47
2022/01/04 03:00:16;;;;;;;3.95;1.73;;;;;;;;;;5090057;28;20099;-48
2022/01/04 03:02:43;;;;;;;3.92;1.65;;;;;;;;;;5090363;28;20016;-49
2022/01/04 03:05:09;;;;;;;3.05;1.70;;;;;;;;;;5104639;28;20483;-49
2022/01/04 03:07:35;;;;;;;2.78;1.65;;;;;;;;;;5110943;28;20122;-49
2022/01/04 03:10:01;;;;;;;3.00;1.80;;;;;;;;;;5110708;28;20067;-48
2022/01/04 03:12:28;;;;;;;4.97;1.58;;;;;;;;;;5091078;28;20028;-51
2022/01/04 03:14:54;;;;;;;4.57;2.13;;;;;;;;;;5089139;28;20036;-49
2022/01/04 03:17:20;;;;;;;3.47;1.80;;;;;;;;;;5090015;28;20024;-48
2022/01/04 03:19:46;;;;;;;2.58;1.40;;;;;;;;;;5089985;28;20467;-48
2022/01/04 03:22:12;;;;;;;6.55;1.67;;;;;;;;;;5090006;28;20547;-48
2022/01/04 03:24:38;;;;;;;3.83;1.80;;;;;;;;;;5088512;28;20563;-51
2022/01/04 03:27:04;;;;;;;4.00;2.10;;;;;;;;;;5089665;28;20115;-49
2022/01/04 03:29:30;;;;;;;2.15;1.50;;;;;;;;;;5089762;28;20036;-48
2022/01/04 03:31:57;;;;;;;2.67;1.35;;;;;;;;;;5089993;28;20032;-48
2022/01/04 03:34:25;;;;;;;3.38;1.80;;;;;;;;;;5087857;28;20031;-50
2022/01/04 03:36:51;;;;;;;4.18;1.60;;;;;;;;;;5089723;28;20035;-48
2022/01/04 03:39:17;;;;;;;3.92;1.52;;;;;;;;;;5089798;28;20036;-50
2022/01/04 03:41:45;;;;;;;4.15;1.58;;;;;;;;;;5089150;28;20032;-49
2022/01/04 03:44:19;;;;;;;4.70;1.60;;;;;;;;;;5097319;28;20030;-48
2022/01/04 03:46:46;;;;;;;2.92;1.40;;;;;;;;;;5109889;28;20024;-48
2022/01/04 03:49:12;;;;;;;4.85;1.80;;;;;;;;;;5110147;28;20835;-51
2022/01/04 03:51:38;;;;;;;5.82;1.70;;;;;;;;;;5110228;28;20615;-48
2022/01/04 03:54:05;;;;;;;3.35;1.70;;;;;;;;;;5107741;28;20475;-49
2022/01/04 03:56:31;;;;;;;4.35;1.77;;;;;;;;;;5087967;28;20028;-52
2022/01/04 03:58:57;;;;;;;3.80;1.70;;;;;;;;;;5089301;28;20035;-50
2022/01/04 04:01:23;;;;;;;5.60;1.67;;;;;;;;;;5087314;28;20083;-52
2022/01/04 04:03:49;;;;;;;2.38;1.65;;;;;;;;;;5106492;28;20063;-49
2022/01/04 04:06:15;;;;;;;4.75;1.70;;;;;;;;;;5104872;28;20054;-49
2022/01/04 04:08:41;;;;;;;5.75;1.83;;;;;;;;;;5108985;28;20035;-48
2022/01/04 04:11:08;;;;;;;2.53;1.45;;;;;;;;;;5101410;28;20020;-49
2022/01/04 04:13:34;;;;;;;2.20;1.48;;;;;;;;;;5089033;28;20769;-52
2022/01/04 04:16:00;;;;;;;5.25;1.42;;;;;;;;;;5088883;28;20034;-52
2022/01/04 04:18:26;;;;;;;2.63;1.33;;;;;;;;;;5089178;28;20387;-51
2022/01/04 04:20:52;;;;;;;5.45;1.90;;;;;;;;;;5089748;28;20024;-48
2022/01/04 04:23:18;;;;;;;2.60;1.20;;;;;;;;;;5089630;28;20035;-50
2022/01/04 04:25:44;;;;;;;2.50;1.10;;;;;;;;;;5092131;28;20380;-49
2022/01/04 04:28:10;;;;;;;3.85;1.80;;;;;;;;;;5088627;28;20497;-48
2022/01/04 04:30:36;;;;;;;2.58;1.50;;;;;;;;;;5089012;28;20020;-49
2022/01/04 04:33:02;;;;;;;3.85;1.67;;;;;;;;;;5088795;28;20063;-48
2022/01/04 04:35:30;;;;;;;2.95;1.60;;;;;;;;;;5109172;28;20139;-51
2022/01/04 04:37:57;;;;;;;2.45;1.40;;;;;;;;;;5108826;28;20028;-51
2022/01/04 04:40:23;;;;;;;4.82;1.50;;;;;;;;;;5107059;28;20066;-51
2022/01/04 04:42:49;;;;;;;3.47;1.83;;;;;;;;;;5095803;28;20528;-53
2022/01/04 04:45:15;;;;;;;3.40;1.67;;;;;;;;;;5108454;28;20522;-52
2022/01/04 04:47:41;;;;;;;5.43;2.05;;;;;;;;;;5109159;28;20027;-53
2022/01/04 04:50:08;;;;;;;6.78;1.80;;;;;;;;;;5093273;28;20515;-50
2022/01/04 04:52:34;;;;;;;3.50;2.00;;;;;;;;;;5099736;28;20032;-49
2022/01/04 04:55:00;;;;;;;5.40;2.28;;;;;;;;;;5087201;28;20670;-49
2022/01/04 04:57:26;;;;;;;4.80;2.10;;;;;;;;;;5090495;28;20036;-49
2022/01/04 04:59:52;;;;;;;2.53;1.70;;;;;;;;;;5104063;28;20019;-48
2022/01/04 05:02:18;;;;;;;4.60;1.67;;;;;;;;;;5108911;28;20486;-48
2022/01/04 05:04:44;;;;;;;3.00;1.73;;;;;;;;;;5091904;28;20093;-51
2022/01/04 05:07:10;;;;;;;3.00;1.70;;;;;;;;;;5087714;28;20550;-49
2022/01/04 05:09:36;;;;;;;4.35;1.92;;;;;;;;;;5087985;28;20099;-49
2022/01/04 05:12:05;;;;;;;1.98;1.30;;;;;;;;;;5087280;28;20089;-48
2022/01/04 05:14:31;;;;;;;3.85;1.73;;;;;;;;;;5069012;28;20030;-51
2022/01/04 05:16:58;;;;;;;2.72;1.48;;;;;;;;;;5101426;28;20077;-48
2022/01/04 05:19:24;;;;;;;5.85;2.17;;;;;;;;;;5108228;28;20020;-50
2022/01/04 05:21:50;;;;;;;4.75;2.05;;;;;;;;;;5093995;28;20039;-49
2022/01/04 05:24:16;;;;;;;4.03;1.83;;;;;;;;;;5094877;28;20023;-48
2022/01/04 05:26:42;;;;;;;3.80;1.75;;;;;;;;;;5095077;28;20651;-49
2022/01/04 05:29:08;;;;;;;4.93;1.67;;;;;;;;;;5087094;28;20373;-49
2022/01/04 05:31:34;;;;;;;3.38;1.58;;;;;;;;;;5087584;28;20465;-49
2022/01/04 05:34:00;;;;;;;2.95;1.70;;;;;;;;;;5092187;28;20386;-49
2022/01/04 05:36:26;;;;;;;3.35;1.80;;;;;;;;;;5107782;28;20028;-50
2022/01/04 05:38:52;;;;;;;3.75;1.92;;;;;;;;;;5108535;28;20544;-52
2022/01/04 05:41:18;;;;;;;4.53;1.80;;;;;;;;;;5097882;28;20032;-50
2022/01/04 05:43:46;;;;;;;3.65;1.88;;;;;;;;;;5096927;28;20043;-51
2022/01/04 05:46:12;;;;;;;5.53;1.90;;;;;;;;;;5091813;28;20036;-50
2022/01/04 05:48:38;;;;;;;4.47;2.00;;;;;;;;;;5107679;28;20016;-52
2022/01/04 05:51:04;;;;;;;3.05;2.00;;;;;;;;;;5107465;28;20491;-50
2022/01/04 05:53:30;;;;;;;4.15;1.80;;;;;;;;;;5094673;28;20031;-48
2022/01/04 05:55:56;;;;;;;4.90;1.85;;;;;;;;;;5084510;28;20511;-51
2022/01/04 05:58:23;;;;;;;3.80;2.08;;;;;;;;;;5087577;28;20016;-49
2022/01/04 06:00:49;;;;;;;5.68;2.17;;;;;;;;;;5069651;28;20028;-50
2022/01/04 06:03:16;;;;;;;3.95;1.73;;;;;;;;;;5085360;28;20031;-48
2022/01/04 06:05:42;;;;;;;4.35;1.77;;;;;;;;;;5070556;28;20070;-49
2022/01/04 06:08:10;;;;;;;4.70;1.88;;;;;;;;;;5074514;28;20565;-48
2022/01/04 06:10:39;;;;;;;3.92;2.00;;;;;;;;;;5085417;28;20391;-47
2022/01/04 06:15:32;;;;;;;4.47;2.15;;;;;;;;;;5108066;28;20063;-47
2022/01/04 06:17:58;;;;;;;5.35;1.75;;;;;;;;;;5107396;28;20414;-48
2022/01/04 06:20:26;;;;;;;3.70;1.70;;;;;;;;;;5103085;28;20032;-50
2022/01/04 06:22:53;;;;;;;3.75;1.85;;;;;;;;;;5108665;28;20015;-47
2022/01/04 06:25:20;;;;;;;6.07;1.70;;;;;;;;;;5106520;28;20035;-48
2022/01/04 06:27:47;;;;;;;4.60;1.95;;;;;;;;;;5087478;28;20106;-51
2022/01/04 06:30:16;;;;;;;4.90;2.20;;;;;;;;;;5089951;28;20027;-48
2022/01/04 06:32:43;;;;;;;3.30;1.77;;;;;;;;;;5099082;28;20028;-48
2022/01/04 06:35:09;;;;;;;4.00;2.35;;;;;;;;;;5087234;28;20720;-47
2022/01/04 06:37:35;;;;;;;6.35;2.28;;;;;;;;;;5087282;28;20096;-49
2022/01/04 06:40:02;;;;;;;3.45;1.88;;;;;;;;;;5094387;28;20012;-48
2022/01/04 06:42:28;;;;;;;4.32;2.05;;;;;;;;;;5086283;28;20067;-48
2022/01/04 06:44:54;;;;;;;3.47;2.08;;;;;;;;;;5086446;28;20663;-50
2022/01/04 06:47:20;;;;;;;5.63;3.00;;;;;;;;;;5085709;28;20041;-49
2022/01/04 06:49:46;;;;;;;4.38;2.45;;;;;;;;;;5107622;28;20054;-49
2022/01/04 06:52:12;;;;;;;4.30;2.83;;;;;;;;;;5090152;28;20035;-51
2022/01/04 06:54:38;;;;;;;4.38;2.15;;;;;;;;;;5093631;28;20020;-51
2022/01/04 06:57:04;;;;;;;5.22;3.08;;;;;;;;;;5084699;28;20074;-48
2022/01/04 06:59:30;;;;;;;3.35;2.30;;;;;;;;;;5083154;28;20020;-52
2022/01/04 07:01:57;;;;;;;4.45;2.47;;;;;;;;;;5086384;28;20020;-51
2022/01/04 07:04:23;;;;;;;4.40;2.50;;;;;;;;;;5086924;28;20395;-48
2022/01/04 07:06:49;;;;;;;3.38;2.13;;;;;;;;;;5074098;28;20123;-49
2022/01/04 07:09:15;;;;;;;3.40;2.30;;;;;;;;;;5089052;28;20028;-50
2022/01/04 07:11:41;;;;;;;3.58;2.22;;;;;;;;;;5086494;28;20494;-52
2022/01/04 07:14:07;;;;;;;4.65;2.55;;;;;;;;;;5086383;28;20043;-52
2022/01/04 07:16:33;;;;;;;3.78;2.40;;;;;;;;;;5085436;28;20036;-51
2022/01/04 07:18:59;;;;;;;4.05;2.55;;;;;;;;;;5086357;28;20085;-48
2022/01/04 07:21:26;;;;;;;5.97;2.85;;;;;;;;;;5086951;28;20788;-52
2022/01/04 07:23:54;;;;;;;6.53;3.10;;;;;;;;;;5069416;28;20488;-48
2022/01/04 07:26:21;;;;;;;5.22;2.63;;;;;;;;;;5086265;28;20056;-48
2022/01/04 07:28:48;;;;;;;6.30;3.25;;;;;;;;;;5085523;28;20073;-50
2022/01/04 07:31:14;;;;;;;4.47;2.72;;;;;;;;;;5086453;28;20044;-51
2022/01/04 07:33:40;;;;;;;6.60;3.45;;;;;;;;;;5085599;28;20439;-48
2022/01/04 07:36:07;;;;;;;7.60;3.78;;;;;;;;;;5084590;28;20158;-49
2022/01/04 07:38:33;;;;;;;6.82;3.03;;;;;;;;;;5070193;28;20052;-49
2022/01/04 07:41:01;;;;;;;4.82;2.58;;;;;;;;;;5070958;28;20031;-49
2022/01/04 07:43:27;;;;;;;3.92;2.90;;;;;;;;;;5084654;28;20024;-48
2022/01/04 07:45:53;;;;;;;6.85;3.17;;;;;;;;;;5089573;28;20027;-49
2022/01/04 07:48:20;;;;;;;4.47;3.00;;;;;;;;;;5098275;28;20033;-47
2022/01/04 07:50:46;;;;;;;4.68;2.83;;;;;;;;;;5089226;28;20035;-49
2022/01/04 07:53:13;;;;;;;4.57;2.53;;;;;;;;;;5088621;28;20109;-52
2022/01/04 07:55:39;;;;;;;3.40;2.28;;;;;;;;;;5088957;28;20120;-48
2022/01/04 07:58:05;;;;;;;6.75;2.95;;;;;;;;;;5088485;28;20512;-48
2022/01/04 08:00:32;;;;;;;4.63;2.97;;;;;;;;;;5089174;28;20036;-49
2022/01/04 08:02:58;;;;;;;6.82;3.53;;;;;;;;;;5088853;28;20460;-49
2022/01/04 08:05:24;;;;;;;8.10;3.45;;;;;;;;;;5089370;28;20095;-48
2022/01/04 08:07:50;;;;;;;6.30;3.72;;;;;;;;;;5089787;28;20066;-50
2022/01/04 08:10:17;;;;;;;6.85;3.63;;;;;;;;;;5071551;28;20062;-51
2022/01/04 08:12:43;;;;;;;7.30;4.07;;;;;;;;;;5090117;28;20031;-47
2022/01/04 08:15:10;;;;;;;7.28;4.15;;;;;;;;;;5089778;28;20043;-47
2022/01/04 08:17:36;;;;;;;8.23;4.20;;;;;;;;;;5087062;28;20378;-48
2022/01/04 08:20:04;;;;;;;8.45;3.65;;;;;;;;;;5088496;28;20099;-49
2022/01/04 08:22:34;;;;;;;6.95;4.30;;;;;;;;;;5088039;28;20016;-51
2022/01/04 08:25:02;;;;;;;7.93;4.15;;;;;;;;;;5088504;28;20024;-50
2022/01/04 08:27:28;;;;;;;6.97;4.00;;;;;;;;;;5087912;28;20625;-50
2022/01/04 08:29:56;;;;;;;6.82;3.90;;;;;;;;;;5088250;28;20097;-48
2022/01/04 08:32:22;;;;;;;5.85;3.35;;;;;;;;;;5088989;28;20036;-47
2022/01/04 08:34:49;;;;;;;6.88;3.95;;;;;;;;;;5069763;28;20039;-48
2022/01/04 08:37:15;;;;;;;7.65;4.70;;;;;;;;;;5087732;28;20051;-48
2022/01/04 08:39:43;;;;;;;7.18;3.67;;;;;;;;;;5087080;28;20036;-48
2022/01/04 08:42:09;;;;;;;7.32;3.95;;;;;;;;;;5070401;28;20132;-49
2022/01/04 08:44:39;;;;;;;7.38;3.83;;;;;;;;;;5067923;28;20032;-48
2022/01/04 08:47:10;;;;;;;7.80;4.57;;;;;;;;;;5067753;28;20048;-51
2022/01/04 08:49:36;;;;;;;9.02;4.38;;;;;;;;;;5087838;28;20028;-49
2022/01/04 08:52:03;;;;;;;9.85;4.43;;;;;;;;;;5087457;28;20406;-49
2022/01/04 08:54:30;;;;;;;9.52;4.38;;;;;;;;;;5088199;28;20028;-48
2022/01/04 08:56:58;;;;;;;6.45;4.07;;;;;;;;;;5085481;28;20036;-52
2022/01/04 08:59:24;;;;;;;10.18;4.88;;;;;;;;;;5070743;28;20446;-51
2022/01/04 09:01:50;;;;;;;10.02;5.82;;;;;;;;;;5088609;28;20025;-48
2022/01/04 09:04:17;;;;;;;8.52;4.72;;;;;;;;;;5069279;28;20105;-50
2022/01/04 09:06:43;;;;;;;8.55;5.22;;;;;;;;;;5085989;28;20047;-49
2022/01/04 09:09:09;;;;;;;10.07;5.90;;;;;;;;;;5086920;28;20067;-48
2022/01/04 09:11:35;;;;;;;9.50;5.93;;;;;;;;;;5086800;28;20063;-48
2022/01/04 09:14:20;;;;;;;10.65;5.43;;;;;;;;;;5087273;28;20020;-48
2022/01/04 09:19:32;;;;;;;13.85;7.47;;;;;;;;;;5087780;28;20035;-50
2022/01/04 09:21:59;;;;;;;10.57;6.88;;;;;;;;;;5086925;28;20093;-48
2022/01/04 09:24:25;;;;;;;11.45;6.85;;;;;;;;;;5087461;28;20028;-49
2022/01/04 09:26:51;;;;;;;11.85;7.50;;;;;;;;;;5087635;28;20699;-50
2022/01/04 09:29:19;;;;;;;12.40;7.53;;;;;;;;;;5086874;28;20039;-48
2022/01/04 09:31:47;;;;;;;11.23;7.53;;;;;;;;;;5086700;28;20047;-48
2022/01/04 09:34:13;;;;;;;12.75;7.65;;;;;;;;;;5088254;28;20032;-49
2022/01/04 09:36:40;;;;;;;10.20;7.72;;;;;;;;;;5087612;28;20032;-52
2022/01/04 09:39:21;;;;;;;13.02;7.22;;;;;;;;;;5087139;28;20418;-49
2022/01/04 09:41:48;;;;;;;11.13;7.68;;;;;;;;;;5086242;28;20024;-49
2022/01/04 09:44:15;;;;;;;13.48;7.78;;;;;;;;;;5086742;28;20077;-52
2022/01/04 09:46:41;;;;;;;11.23;7.63;;;;;;;;;;5086922;28;20039;-50
2022/01/04 09:49:09;;;;;;;14.05;8.07;;;;;;;;;;5086546;28;20028;-51
2022/01/04 09:51:36;;;;;;;12.95;8.02;;;;;;;;;;5087054;28;20124;-50
2022/01/04 09:54:03;;;;;;;13.10;8.25;;;;;;;;;;5086560;28;20038;-48
2022/01/04 09:56:29;;;;;;;13.10;7.55;;;;;;;;;;5086241;28;20020;-47
2022/01/04 09:58:55;;;;;;;14.95;8.60;;;;;;;;;;5086751;28;20028;-48
2022/01/04 10:01:26;;;;;;;17.17;9.93;;;;;;;;;;5087804;28;20055;-49
2022/01/04 10:03:52;;;;;;;14.32;9.80;;;;;;;;;;5087442;28;20032;-48
2022/01/04 10:06:19;;;;;;;16.85;10.65;;;;;;;;;;5086343;28;20065;-49
2022/01/04 10:09:00;;;;;;;16.17;11.05;;;;;;;;;;5081555;28;20101;-47
2022/01/04 10:11:39;;;;;;;17.92;10.85;;;;;;;;;;5084910;28;20041;-47
2022/01/04 10:14:24;;;;;;;16.95;11.68;;;;;;;;;;5085559;28;20058;-47
2022/01/04 10:16:53;;;;;;;19.55;11.82;;;;;;;;;;5068090;28;20070;-47
2022/01/04 10:19:31;;;;;;;17.83;11.90;;;;;;;;;;5077234;28;20499;-50
2022/01/04 10:22:27;;;;;;;19.77;11.75;;;;;;;;;;5087436;28;20588;-48
2022/01/04 10:25:08;;;;;;;21.23;12.18;;;;;;;;;;5051861;28;20127;-48
2022/01/04 10:27:39;;;;;;;19.83;11.50;;;;;;;;;;5086488;28;20028;-50
2022/01/04 10:30:11;;;;;;;16.98;10.40;;;;;;;;;;5086911;28;20032;-50
2022/01/04 10:32:45;;;;;;;16.67;10.90;;;;;;;;;;5087131;28;20097;-48
2022/01/04 10:35:11;;;;;;;19.55;11.30;;;;;;;;;;5085485;28;20582;-49
2022/01/04 10:37:40;;;;;;;17.95;11.18;;;;;;;;;;5092581;28;20059;-51
2022/01/04 10:40:07;;;;;;;17.88;11.15;;;;;;;;;;5105958;28;20047;-50
2022/01/04 10:42:34;;;;;;;18.15;11.43;;;;;;;;;;5085524;28;20109;-49
2022/01/04 10:45:20;;;;;;;18.13;11.20;;;;;;;;;;5085522;28;20026;-50
2022/01/04 10:47:46;;;;;;;17.30;10.85;;;;;;;;;;5086253;28;20030;-51
2022/01/04 10:50:13;;;;;;;19.38;10.35;;;;;;;;;;5088601;28;20119;-47
2022/01/04 10:52:39;;;;;;;17.23;10.43;;;;;;;;;;5084351;28;20032;-47
2022/01/04 10:55:14;;;;;;;16.70;10.23;;;;;;;;;;5085083;28;20035;-48
2022/01/04 10:57:41;;;;;;;13.40;9.70;;;;;;;;;;5081256;28;20020;-51
2022/01/04 11:00:20;;;;;;;16.95;8.95;;;;;;;;;;5089638;28;20031;-48
2022/01/04 11:02:47;;;;;;;17.48;9.15;;;;;;;;;;5089285;28;20039;-47
2022/01/04 11:05:14;;;;;;;18.05;9.88;;;;;;;;;;5087533;28;20032;-49
2022/01/04 11:07:59;;;;;;;14.15;8.65;;;;;;;;;;5085208;28;20039;-48
2022/01/04 11:10:27;;;;;;;15.32;8.77;;;;;;;;;;5075154;28;20057;-50
2022/01/04 11:12:54;;;;;;;16.15;9.25;;;;;;;;;;5088044;28;20176;-52
2022/01/04 11:15:20;;;;;;;13.70;8.20;;;;;;;;;;5087074;28;20032;-48
2022/01/04 11:17:47;;;;;;;14.27;8.57;;;;;;;;;;5086067;28;20024;-51
2022/01/04 11:20:13;;;;;;;15.13;8.73;;;;;;;;;;5088332;28;20106;-50
2022/01/04 11:22:40;;;;;;;12.45;7.75;;;;;;;;;;5090020;28;20518;-47
2022/01/04 11:25:07;;;;;;;15.60;8.55;;;;;;;;;;5089648;28;20498;-47
2022/01/04 11:27:35;;;;;;;12.65;8.48;;;;;;;;;;5089883;28;20028;-48
2022/01/04 11:30:03;;;;;;;14.50;8.75;;;;;;;;;;5089325;28;20580;-49
2022/01/04 11:32:31;;;;;;;14.15;8.20;;;;;;;;;;5090052;28;20077;-47
2022/01/04 11:35:12;;;;;;;14.10;8.60;;;;;;;;;;5071055;28;20411;-47
2022/01/04 11:37:41;;;;;;;9.52;6.60;;;;;;;;;;5089645;28;20484;-48
2022/01/04 11:40:28;;;;;;;16.00;8.45;;;;;;;;;;5089390;28;20106;-48
2022/01/04 11:42:55;;;;;;;11.98;7.40;;;;;;;;;;5074290;28;20023;-46
2022/01/04 11:45:39;;;;;;;10.95;6.80;;;;;;;;;;5090138;28;20036;-49
2022/01/04 11:48:24;;;;;;;12.45;6.72;;;;;;;;;;5089360;28;20055;-49
2022/01/04 11:50:50;;;;;;;11.35;5.95;;;;;;;;;;5088993;28;20039;-48
2022/01/04 11:53:16;;;;;;;11.30;5.97;;;;;;;;;;5087736;28;20032;-48
2022/01/04 11:55:50;;;;;;;9.73;5.55;;;;;;;;;;5087470;28;20084;-49
2022/01/04 11:58:20;;;;;;;12.02;6.57;;;;;;;;;;5091515;28;20030;-48
2022/01/04 12:00:56;;;;;;;8.68;5.30;;;;;;;;;;5108654;28;20065;-47
2022/01/04 12:03:35;;;;;;;10.10;5.80;;;;;;;;;;5099185;28;20028;-49
2022/01/04 12:06:02;;;;;;;11.82;6.43;;;;;;;;;;5087289;28;20479;-49
2022/01/04 12:08:41;;;;;;;9.27;5.63;;;;;;;;;;5088269;28;20426;-48
2022/01/04 12:11:25;;;;;;;11.60;6.40;;;;;;;;;;5086522;28;20114;-50
2022/01/04 12:13:58;;;;;;;9.90;5.40;;;;;;;;;;5087705;28;20032;-48
2022/01/04 12:16:37;;;;;;;10.93;5.68;;;;;;;;;;5087693;28;20028;-47
2022/01/04 12:19:05;;;;;;;11.00;6.18;;;;;;;;;;5086880;28;20067;-48
2022/01/04 12:21:32;;;;;;;10.10;5.53;;;;;;;;;;5087574;28;20426;-47
2022/01/04 12:23:58;;;;;;;10.02;5.68;;;;;;;;;;5087882;28;20109;-48
2022/01/04 12:26:25;;;;;;;9.70;5.00;;;;;;;;;;5086889;28;20050;-47
2022/01/04 12:28:58;;;;;;;8.70;5.25;;;;;;;;;;5087456;28;20279;-50
2022/01/04 12:31:28;;;;;;;10.63;5.93;;;;;;;;;;5068775;28;20384;-51
2022/01/04 12:33:55;;;;;;;8.85;5.20;;;;;;;;;;5087186;28;20036;-48
2022/01/04 12:36:25;;;;;;;7.90;4.95;;;;;;;;;;5087315;28;20024;-47
2022/01/04 12:38:52;;;;;;;9.07;6.15;;;;;;;;;;5087066;28;20056;-48
2022/01/04 12:41:19;;;;;;;9.85;5.60;;;;;;;;;;5086102;28;20032;-50
2022/01/04 12:43:47;;;;;;;9.77;5.97;;;;;;;;;;5087009;28;20308;-49
2022/01/04 12:46:14;;;;;;;10.43;5.75;;;;;;;;;;5086655;28;20024;-49
2022/01/04 12:48:51;;;;;;;10.30;5.60;;;;;;;;;;5084883;28;20031;-49
2022/01/04 12:51:25;;;;;;;9.40;5.53;;;;;;;;;;5086960;28;20036;-48
2022/01/04 12:53:57;;;;;;;8.13;4.85;;;;;;;;;;5088175;28;20060;-49
2022/01/04 12:56:23;;;;;;;7.18;4.90;;;;;;;;;;5090638;28;20028;-48
2022/01/04 12:58:50;;;;;;;8.80;5.38;;;;;;;;;;5108338;28;20031;-48
2022/01/04 13:01:22;;;;;;;7.97;5.28;;;;;;;;;;5105739;28;20720;-48
2022/01/04 13:03:48;;;;;;;9.68;5.07;;;;;;;;;;5108350;28;20114;-47
2022/01/04 13:06:14;;;;;;;10.25;5.78;;;;;;;;;;5097645;28;20031;-48
2022/01/04 13:08:41;;;;;;;8.32;5.13;;;;;;;;;;5108249;28;20495;-48
2022/01/04 13:11:07;;;;;;;10.48;5.53;;;;;;;;;;5096872;28;20423;-50
2022/01/04 13:13:34;;;;;;;10.00;6.20;;;;;;;;;;5088216;28;20043;-48
2022/01/04 13:16:19;;;;;;;9.52;5.25;;;;;;;;;;5085916;28;20047;-49
2022/01/04 13:18:45;;;;;;;9.15;5.47;;;;;;;;;;5087419;28;20043;-48
2022/01/04 13:21:12;;;;;;;6.30;4.82;;;;;;;;;;5096662;28;20020;-48
2022/01/04 13:23:39;;;;;;;9.90;5.75;;;;;;;;;;5084831;28;20063;-49
2022/01/04 13:26:05;;;;;;;11.48;5.43;;;;;;;;;;5083504;28;20103;-48
2022/01/04 13:28:33;;;;;;;9.50;4.65;;;;;;;;;;5086162;28;20412;-48
2022/01/04 13:30:59;;;;;;;10.18;6.00;;;;;;;;;;5086332;28;20028;-50
2022/01/04 13:33:26;;;;;;;10.55;5.95;;;;;;;;;;5068181;28;20035;-48
2022/01/04 13:35:53;;;;;;;7.63;4.90;;;;;;;;;;5096397;28;20072;-50
2022/01/04 13:38:22;;;;;;;11.10;5.28;;;;;;;;;;5105579;28;20059;-47
2022/01/04 13:40:53;;;;;;;10.75;5.53;;;;;;;;;;5100967;28;20153;-49
2022/01/04 13:43:26;;;;;;;6.78;4.28;;;;;;;;;;5084066;28;20036;-50
2022/01/04 13:45:54;;;;;;;9.60;5.17;;;;;;;;;;5086465;28;20020;-50
2022/01/04 13:48:31;;;;;;;6.90;4.65;;;;;;;;;;5099773;28;20160;-51
2022/01/04 13:51:10;;;;;;;10.18;5.35;;;;;;;;;;5099510;28;20031;-49
2022/01/04 13:53:37;;;;;;;10.77;5.60;;;;;;;;;;5089421;28;20050;-51
2022/01/04 13:56:11;;;;;;;8.13;4.88;;;;;;;;;;5082150;28;20111;-51
2022/01/04 13:58:39;;;;;;;10.05;5.40;;;;;;;;;;5106154;28;20016;-50
2022/01/04 14:01:15;;;;;;;6.95;4.75;;;;;;;;;;5101213;28;20731;-51
2022/01/04 14:03:41;;;;;;;9.07;5.40;;;;;;;;;;5108092;28;20068;-52
2022/01/04 14:06:26;;;;;;;11.88;4.88;;;;;;;;;;5101298;28;20140;-51
2022/01/04 14:08:53;;;;;;;6.47;4.72;;;;;;;;;;5089703;28;20036;-50
2022/01/04 14:11:29;;;;;;;10.50;5.60;;;;;;;;;;5097084;28;20036;-50
2022/01/04 14:13:56;;;;;;;8.50;5.13;;;;;;;;;;5085254;28;20020;-47
2022/01/04 14:16:22;;;;;;;7.60;4.75;;;;;;;;;;5105819;28;20441;-50
2022/01/04 14:19:06;;;;;;;8.60;4.50;;;;;;;;;;5100923;28;20024;-50
2022/01/04 14:21:34;;;;;;;9.10;5.00;;;;;;;;;;5086261;28;20024;-50
2022/01/04 14:24:01;;;;;;;9.27;5.47;;;;;;;;;;5085654;28;20020;-51
2022/01/04 14:26:28;;;;;;;11.48;5.50;;;;;;;;;;5085494;28;20028;-50
2022/01/04 14:28:55;;;;;;;9.60;5.68;;;;;;;;;;5086506;28;20089;-50
2022/01/04 14:31:21;;;;;;;9.55;4.68;;;;;;;;;;5086266;28;20028;-48
2022/01/04 14:33:47;;;;;;;9.13;5.38;;;;;;;;;;5086525;28;20680;-51
2022/01/04 14:36:14;;;;;;;8.38;5.15;;;;;;;;;;5086412;28;20031;-49
2022/01/04 14:38:43;;;;;;;8.50;5.35;;;;;;;;;;5086397;28;20054;-50
2022/01/04 14:41:10;;;;;;;9.88;5.50;;;;;;;;;;5085354;28;20589;-50
2022/01/04 14:43:36;;;;;;;9.35;5.90;;;;;;;;;;5086426;28;20025;-52
2022/01/04 14:46:02;;;;;;;12.20;5.60;;;;;;;;;;5087577;28;20093;-48
2022/01/04 14:48:28;;;;;;;11.27;5.95;;;;;;;;;;5086635;28;20437;-51
2022/01/04 14:50:54;;;;;;;8.10;5.65;;;;;;;;;;5086253;28;20517;-48
2022/01/04 14:53:21;;;;;;;9.40;5.00;;;;;;;;;;5092354;28;20035;-50
2022/01/04 14:55:48;;;;;;;9.35;4.32;;;;;;;;;;5101277;28;20361;-51